sensor_id;sensor_type;location;lat;lon;timestamp;P1;durP1;ratioP1;P2;durP2;ratioP2
8993;SDS011;4532;50.886;4.700;2022-10-26T00:01:08;5.40;;;1.80;;
8993;SDS011;4532;50.886;4.700;2022-10-26T00:03:40;6.13;;;1.80;;
8993;SDS011;4532;50.886;4.700;2022-10-26T00:06:10;4.10;;;1.90;;
8993;SDS011;4532;50.886;4.700;2022-10-26T00:08:37;5.87;;;2.20;;
8993;SDS011;4532;50.886;4.700;2022-10-26T00:11:05;4.13;;;1.70;;
8993;SDS011;4532;50.886;4.700;2022-10-26T00:13:36;3.83;;;2.03;;
8993;SDS011;4532;50.886;4.700;2022-10-26T00:16:10;6.23;;;2.00;;
8993;SDS011;4532;50.886;4.700;2022-10-26T00:18:49;6.83;;;1.73;;
8993;SDS011;4532;50.886;4.700;2022-10-26T00:21:17;5.83;;;2.20;;
8993;SDS011;4532;50.886;4.700;2022-10-26T00:23:44;4.07;;;2.10;;
8993;SDS011;4532;50.886;4.700;2022-10-26T00:26:12;3.80;;;1.80;;
8993;SDS011;4532;50.886;4.700;2022-10-26T00:28:41;4.83;;;2.17;;
8993;SDS011;4532;50.886;4.700;2022-10-26T00:31:12;3.97;;;1.83;;
8993;SDS011;4532;50.886;4.700;2022-10-26T00:33:40;4.13;;;1.80;;
8993;SDS011;4532;50.886;4.700;2022-10-26T00:36:08;3.83;;;1.87;;
8993;SDS011;4532;50.886;4.700;2022-10-26T00:38:36;5.27;;;2.00;;
8993;SDS011;4532;50.886;4.700;2022-10-26T00:41:03;4.33;;;2.07;;
8993;SDS011;4532;50.886;4.700;2022-10-26T00:43:32;8.17;;;2.90;;
8993;SDS011;4532;50.886;4.700;2022-10-26T00:46:00;5.13;;;2.60;;
8993;SDS011;4532;50.886;4.700;2022-10-26T00:48:30;5.20;;;2.67;;
8993;SDS011;4532;50.886;4.700;2022-10-26T00:51:26;5.53;;;2.30;;
8993;SDS011;4532;50.886;4.700;2022-10-26T00:54:02;6.50;;;2.80;;
8993;SDS011;4532;50.886;4.700;2022-10-26T00:56:31;4.97;;;2.30;;
8993;SDS011;4532;50.886;4.700;2022-10-26T00:59:01;6.20;;;2.93;;
8993;SDS011;4532;50.886;4.700;2022-10-26T01:01:33;6.97;;;2.90;;
8993;SDS011;4532;50.886;4.700;2022-10-26T01:04:03;7.67;;;2.97;;
8993;SDS011;4532;50.886;4.700;2022-10-26T01:06:31;6.67;;;3.10;;
8993;SDS011;4532;50.886;4.700;2022-10-26T01:09:03;7.63;;;3.00;;
8993;SDS011;4532;50.886;4.700;2022-10-26T01:11:31;5.07;;;2.73;;
8993;SDS011;4532;50.886;4.700;2022-10-26T01:13:58;6.87;;;3.17;;
8993;SDS011;4532;50.886;4.700;2022-10-26T01:16:31;6.67;;;2.70;;
8993;SDS011;4532;50.886;4.700;2022-10-26T01:27:19;7.00;;;2.70;;
8993;SDS011;4532;50.886;4.700;2022-10-26T01:35:20;3.70;;;2.33;;
8993;SDS011;4532;50.886;4.700;2022-10-26T01:38:08;4.53;;;2.93;;
8993;SDS011;4532;50.886;4.700;2022-10-26T01:40:46;4.93;;;2.50;;
8993;SDS011;4532;50.886;4.700;2022-10-26T01:43:20;6.23;;;2.70;;
8993;SDS011;4532;50.886;4.700;2022-10-26T01:45:50;4.00;;;2.70;;
8993;SDS011;4532;50.886;4.700;2022-10-26T01:48:18;5.57;;;2.70;;
8993;SDS011;4532;50.886;4.700;2022-10-26T01:50:50;5.70;;;2.50;;
8993;SDS011;4532;50.886;4.700;2022-10-26T01:53:19;6.43;;;2.80;;
8993;SDS011;4532;50.886;4.700;2022-10-26T01:55:48;7.53;;;2.80;;
8993;SDS011;4532;50.886;4.700;2022-10-26T01:58:26;3.67;;;2.17;;
8993;SDS011;4532;50.886;4.700;2022-10-26T02:01:28;4.00;;;1.93;;
8993;SDS011;4532;50.886;4.700;2022-10-26T02:12:32;4.20;;;2.40;;
8993;SDS011;4532;50.886;4.700;2022-10-26T02:15:08;4.03;;;2.60;;
8993;SDS011;4532;50.886;4.700;2022-10-26T02:21:08;4.30;;;2.13;;
8993;SDS011;4532;50.886;4.700;2022-10-26T02:23:43;5.60;;;2.60;;
8993;SDS011;4532;50.886;4.700;2022-10-26T02:26:14;6.10;;;2.50;;
8993;SDS011;4532;50.886;4.700;2022-10-26T02:28:46;5.13;;;2.60;;
8993;SDS011;4532;50.886;4.700;2022-10-26T02:31:16;6.90;;;2.40;;
8993;SDS011;4532;50.886;4.700;2022-10-26T02:33:48;8.17;;;2.17;;
8993;SDS011;4532;50.886;4.700;2022-10-26T02:36:23;4.77;;;2.00;;
8993;SDS011;4532;50.886;4.700;2022-10-26T02:38:54;6.33;;;2.30;;
8993;SDS011;4532;50.886;4.700;2022-10-26T02:41:24;5.63;;;2.10;;
8993;SDS011;4532;50.886;4.700;2022-10-26T02:44:03;3.80;;;2.07;;
8993;SDS011;4532;50.886;4.700;2022-10-26T02:46:40;6.07;;;2.77;;
8993;SDS011;4532;50.886;4.700;2022-10-26T02:49:09;2.77;;;1.67;;
8993;SDS011;4532;50.886;4.700;2022-10-26T02:51:51;4.83;;;2.20;;
8993;SDS011;4532;50.886;4.700;2022-10-26T02:54:41;6.33;;;1.97;;
8993;SDS011;4532;50.886;4.700;2022-10-26T02:57:14;3.43;;;2.23;;
8993;SDS011;4532;50.886;4.700;2022-10-26T02:59:53;4.93;;;1.90;;
8993;SDS011;4532;50.886;4.700;2022-10-26T03:02:21;7.40;;;1.87;;
8993;SDS011;4532;50.886;4.700;2022-10-26T03:04:49;4.10;;;1.50;;
8993;SDS011;4532;50.886;4.700;2022-10-26T03:07:21;4.23;;;1.87;;
8993;SDS011;4532;50.886;4.700;2022-10-26T03:09:49;3.80;;;1.70;;
8993;SDS011;4532;50.886;4.700;2022-10-26T03:12:16;2.33;;;1.60;;
8993;SDS011;4532;50.886;4.700;2022-10-26T03:14:44;3.20;;;1.70;;
8993;SDS011;4532;50.886;4.700;2022-10-26T03:17:13;4.03;;;1.50;;
8993;SDS011;4532;50.886;4.700;2022-10-26T03:19:41;1.90;;;1.50;;
8993;SDS011;4532;50.886;4.700;2022-10-26T03:22:08;6.40;;;1.50;;
8993;SDS011;4532;50.886;4.700;2022-10-26T03:24:35;2.80;;;1.60;;
8993;SDS011;4532;50.886;4.700;2022-10-26T03:27:02;3.60;;;1.50;;
8993;SDS011;4532;50.886;4.700;2022-10-26T03:29:29;3.20;;;1.70;;
8993;SDS011;4532;50.886;4.700;2022-10-26T03:31:57;2.37;;;1.40;;
8993;SDS011;4532;50.886;4.700;2022-10-26T03:34:26;3.83;;;1.57;;
8993;SDS011;4532;50.886;4.700;2022-10-26T03:36:53;3.73;;;1.43;;
8993;SDS011;4532;50.886;4.700;2022-10-26T03:39:21;5.23;;;1.40;;
8993;SDS011;4532;50.886;4.700;2022-10-26T03:41:48;5.63;;;1.40;;
8993;SDS011;4532;50.886;4.700;2022-10-26T03:44:15;1.73;;;1.10;;
8993;SDS011;4532;50.886;4.700;2022-10-26T03:46:42;4.43;;;1.53;;
8993;SDS011;4532;50.886;4.700;2022-10-26T03:49:10;3.70;;;1.27;;
8993;SDS011;4532;50.886;4.700;2022-10-26T03:51:39;2.17;;;1.30;;
8993;SDS011;4532;50.886;4.700;2022-10-26T03:54:06;2.63;;;1.30;;
8993;SDS011;4532;50.886;4.700;2022-10-26T03:56:34;1.43;;;1.00;;
8993;SDS011;4532;50.886;4.700;2022-10-26T03:59:01;2.67;;;1.23;;
8993;SDS011;4532;50.886;4.700;2022-10-26T04:01:28;3.10;;;1.33;;
8993;SDS011;4532;50.886;4.700;2022-10-26T04:03:56;2.95;;;0.95;;
8993;SDS011;4532;50.886;4.700;2022-10-26T04:06:23;2.72;;;1.00;;
8993;SDS011;4532;50.886;4.700;2022-10-26T04:08:52;4.18;;;1.00;;
8993;SDS011;4532;50.886;4.700;2022-10-26T04:11:25;0.97;;;0.80;;
8993;SDS011;4532;50.886;4.700;2022-10-26T04:13:52;1.75;;;1.00;;
8993;SDS011;4532;50.886;4.700;2022-10-26T04:16:20;3.08;;;1.23;;
8993;SDS011;4532;50.886;4.700;2022-10-26T04:18:48;1.93;;;0.90;;
8993;SDS011;4532;50.886;4.700;2022-10-26T04:21:15;1.48;;;0.73;;
8993;SDS011;4532;50.886;4.700;2022-10-26T04:23:42;1.40;;;1.23;;
8993;SDS011;4532;50.886;4.700;2022-10-26T04:26:09;2.80;;;0.83;;
8993;SDS011;4532;50.886;4.700;2022-10-26T04:28:39;2.17;;;0.83;;
8993;SDS011;4532;50.886;4.700;2022-10-26T04:31:06;3.73;;;1.03;;
8993;SDS011;4532;50.886;4.700;2022-10-26T04:33:33;6.20;;;1.30;;
8993;SDS011;4532;50.886;4.700;2022-10-26T04:36:01;2.10;;;1.10;;
8993;SDS011;4532;50.886;4.700;2022-10-26T04:38:29;4.13;;;1.20;;
8993;SDS011;4532;50.886;4.700;2022-10-26T04:40:56;2.97;;;1.10;;
8993;SDS011;4532;50.886;4.700;2022-10-26T04:43:23;2.23;;;1.17;;
8993;SDS011;4532;50.886;4.700;2022-10-26T04:45:54;3.10;;;1.13;;
8993;SDS011;4532;50.886;4.700;2022-10-26T04:48:24;2.50;;;1.20;;
8993;SDS011;4532;50.886;4.700;2022-10-26T04:50:57;1.73;;;1.37;;
8993;SDS011;4532;50.886;4.700;2022-10-26T04:53:25;3.30;;;1.23;;
8993;SDS011;4532;50.886;4.700;2022-10-26T04:55:56;3.33;;;1.23;;
8993;SDS011;4532;50.886;4.700;2022-10-26T04:58:25;3.90;;;1.30;;
8993;SDS011;4532;50.886;4.700;2022-10-26T05:00:54;5.13;;;1.50;;
8993;SDS011;4532;50.886;4.700;2022-10-26T05:03:21;3.40;;;1.27;;
8993;SDS011;4532;50.886;4.700;2022-10-26T05:05:49;2.40;;;1.30;;
8993;SDS011;4532;50.886;4.700;2022-10-26T05:08:16;3.83;;;1.70;;
8993;SDS011;4532;50.886;4.700;2022-10-26T05:10:47;2.07;;;1.03;;
8993;SDS011;4532;50.886;4.700;2022-10-26T05:13:18;1.75;;;1.13;;
8993;SDS011;4532;50.886;4.700;2022-10-26T05:15:45;1.77;;;1.30;;
8993;SDS011;4532;50.886;4.700;2022-10-26T05:18:12;3.70;;;1.40;;
8993;SDS011;4532;50.886;4.700;2022-10-26T05:20:42;3.47;;;1.40;;
8993;SDS011;4532;50.886;4.700;2022-10-26T05:23:10;3.47;;;1.30;;
8993;SDS011;4532;50.886;4.700;2022-10-26T05:25:38;2.97;;;1.70;;
8993;SDS011;4532;50.886;4.700;2022-10-26T05:28:06;4.50;;;1.40;;
8993;SDS011;4532;50.886;4.700;2022-10-26T05:30:37;1.47;;;1.17;;
8993;SDS011;4532;50.886;4.700;2022-10-26T05:33:05;4.70;;;1.27;;
8993;SDS011;4532;50.886;4.700;2022-10-26T05:35:33;2.03;;;1.00;;
8993;SDS011;4532;50.886;4.700;2022-10-26T05:38:22;3.37;;;1.30;;
8993;SDS011;4532;50.886;4.700;2022-10-26T05:40:49;1.88;;;1.08;;
8993;SDS011;4532;50.886;4.700;2022-10-26T05:43:17;2.83;;;1.20;;
8993;SDS011;4532;50.886;4.700;2022-10-26T05:45:46;1.20;;;1.10;;
8993;SDS011;4532;50.886;4.700;2022-10-26T05:48:15;1.80;;;1.30;;
8993;SDS011;4532;50.886;4.700;2022-10-26T05:50:45;3.03;;;1.15;;
8993;SDS011;4532;50.886;4.700;2022-10-26T05:53:12;3.70;;;1.37;;
8993;SDS011;4532;50.886;4.700;2022-10-26T05:55:42;3.13;;;1.37;;
8993;SDS011;4532;50.886;4.700;2022-10-26T05:58:10;3.90;;;1.30;;
8993;SDS011;4532;50.886;4.700;2022-10-26T06:00:56;3.73;;;1.57;;
8993;SDS011;4532;50.886;4.700;2022-10-26T06:06:33;4.00;;;1.20;;
8993;SDS011;4532;50.886;4.700;2022-10-26T06:09:11;2.97;;;1.30;;
8993;SDS011;4532;50.886;4.700;2022-10-26T06:11:39;5.60;;;1.60;;
8993;SDS011;4532;50.886;4.700;2022-10-26T06:14:07;7.40;;;1.77;;
8993;SDS011;4532;50.886;4.700;2022-10-26T06:16:45;2.90;;;1.60;;
8993;SDS011;4532;50.886;4.700;2022-10-26T06:27:41;4.63;;;1.50;;
8993;SDS011;4532;50.886;4.700;2022-10-26T06:30:25;7.50;;;1.77;;
8993;SDS011;4532;50.886;4.700;2022-10-26T06:32:52;3.60;;;1.70;;
8993;SDS011;4532;50.886;4.700;2022-10-26T06:35:43;3.17;;;1.60;;
8993;SDS011;4532;50.886;4.700;2022-10-26T06:38:35;5.50;;;1.97;;
8993;SDS011;4532;50.886;4.700;2022-10-26T06:41:05;6.07;;;2.27;;
8993;SDS011;4532;50.886;4.700;2022-10-26T06:43:33;3.97;;;1.70;;
8993;SDS011;4532;50.886;4.700;2022-10-26T06:46:07;3.23;;;1.40;;
8993;SDS011;4532;50.886;4.700;2022-10-26T06:52:01;3.40;;;1.73;;
8993;SDS011;4532;50.886;4.700;2022-10-26T06:57:11;7.70;;;2.47;;
8993;SDS011;4532;50.886;4.700;2022-10-26T06:59:59;8.73;;;2.53;;
8993;SDS011;4532;50.886;4.700;2022-10-26T07:02:40;6.93;;;2.03;;
8993;SDS011;4532;50.886;4.700;2022-10-26T07:05:08;5.07;;;1.93;;
8993;SDS011;4532;50.886;4.700;2022-10-26T07:07:45;7.50;;;2.40;;
8993;SDS011;4532;50.886;4.700;2022-10-26T07:10:14;3.00;;;1.60;;
8993;SDS011;4532;50.886;4.700;2022-10-26T07:12:41;5.87;;;1.87;;
8993;SDS011;4532;50.886;4.700;2022-10-26T07:15:12;3.57;;;2.07;;
8993;SDS011;4532;50.886;4.700;2022-10-26T07:17:42;4.47;;;1.50;;
8993;SDS011;4532;50.886;4.700;2022-10-26T07:20:11;3.77;;;1.90;;
8993;SDS011;4532;50.886;4.700;2022-10-26T07:22:40;2.33;;;1.60;;
8993;SDS011;4532;50.886;4.700;2022-10-26T07:25:08;5.50;;;1.57;;
8993;SDS011;4532;50.886;4.700;2022-10-26T07:27:38;6.70;;;2.07;;
8993;SDS011;4532;50.886;4.700;2022-10-26T07:30:05;5.73;;;2.20;;
8993;SDS011;4532;50.886;4.700;2022-10-26T07:32:33;3.30;;;1.60;;
8993;SDS011;4532;50.886;4.700;2022-10-26T07:35:03;3.13;;;1.90;;
8993;SDS011;4532;50.886;4.700;2022-10-26T07:37:33;3.00;;;1.70;;
8993;SDS011;4532;50.886;4.700;2022-10-26T07:40:00;4.30;;;1.70;;
8993;SDS011;4532;50.886;4.700;2022-10-26T07:42:33;4.70;;;2.00;;
8993;SDS011;4532;50.886;4.700;2022-10-26T07:45:02;6.83;;;1.70;;
8993;SDS011;4532;50.886;4.700;2022-10-26T07:47:30;3.67;;;1.70;;
8993;SDS011;4532;50.886;4.700;2022-10-26T07:49:57;3.97;;;1.87;;
8993;SDS011;4532;50.886;4.700;2022-10-26T07:52:25;6.40;;;1.87;;
8993;SDS011;4532;50.886;4.700;2022-10-26T07:54:52;4.50;;;1.67;;
8993;SDS011;4532;50.886;4.700;2022-10-26T07:57:20;4.27;;;1.77;;
8993;SDS011;4532;50.886;4.700;2022-10-26T07:59:47;3.53;;;2.00;;
8993;SDS011;4532;50.886;4.700;2022-10-26T08:02:15;5.73;;;2.20;;
8993;SDS011;4532;50.886;4.700;2022-10-26T08:04:42;5.87;;;2.10;;
8993;SDS011;4532;50.886;4.700;2022-10-26T08:07:10;4.60;;;2.17;;
8993;SDS011;4532;50.886;4.700;2022-10-26T08:09:37;6.50;;;2.13;;
8993;SDS011;4532;50.886;4.700;2022-10-26T08:12:05;3.23;;;1.77;;
8993;SDS011;4532;50.886;4.700;2022-10-26T08:14:33;4.20;;;2.03;;
8993;SDS011;4532;50.886;4.700;2022-10-26T08:17:00;3.83;;;1.93;;
8993;SDS011;4532;50.886;4.700;2022-10-26T08:19:28;5.33;;;2.10;;
8993;SDS011;4532;50.886;4.700;2022-10-26T08:21:56;4.27;;;1.90;;
8993;SDS011;4532;50.886;4.700;2022-10-26T08:24:23;4.70;;;1.87;;
8993;SDS011;4532;50.886;4.700;2022-10-26T08:26:51;5.93;;;2.17;;
8993;SDS011;4532;50.886;4.700;2022-10-26T08:29:18;10.00;;;2.10;;
8993;SDS011;4532;50.886;4.700;2022-10-26T08:31:46;5.13;;;1.90;;
8993;SDS011;4532;50.886;4.700;2022-10-26T08:34:14;9.93;;;2.10;;
8993;SDS011;4532;50.886;4.700;2022-10-26T08:36:41;6.93;;;2.47;;
8993;SDS011;4532;50.886;4.700;2022-10-26T08:39:11;7.47;;;2.10;;
8993;SDS011;4532;50.886;4.700;2022-10-26T08:41:42;3.97;;;1.97;;
8993;SDS011;4532;50.886;4.700;2022-10-26T08:44:32;7.37;;;2.10;;
8993;SDS011;4532;50.886;4.700;2022-10-26T08:49:40;4.27;;;2.00;;
8993;SDS011;4532;50.886;4.700;2022-10-26T08:52:28;5.63;;;1.83;;
8993;SDS011;4532;50.886;4.700;2022-10-26T08:55:19;4.53;;;1.77;;
8993;SDS011;4532;50.886;4.700;2022-10-26T08:57:51;6.20;;;2.17;;
8993;SDS011;4532;50.886;4.700;2022-10-26T09:00:20;9.87;;;2.00;;
8993;SDS011;4532;50.886;4.700;2022-10-26T09:02:54;5.10;;;1.93;;
8993;SDS011;4532;50.886;4.700;2022-10-26T09:05:31;6.93;;;2.33;;
8993;SDS011;4532;50.886;4.700;2022-10-26T09:25:56;5.80;;;1.60;;
8993;SDS011;4532;50.886;4.700;2022-10-26T09:28:27;1.80;;;1.20;;
8993;SDS011;4532;50.886;4.700;2022-10-26T09:31:00;8.18;;;1.73;;
8993;SDS011;4532;50.886;4.700;2022-10-26T09:33:30;4.03;;;1.40;;
8993;SDS011;4532;50.886;4.700;2022-10-26T09:36:02;6.53;;;1.15;;
8993;SDS011;4532;50.886;4.700;2022-10-26T09:41:30;2.15;;;1.40;;
8993;SDS011;4532;50.886;4.700;2022-10-26T09:47:06;1.75;;;0.90;;
8993;SDS011;4532;50.886;4.700;2022-10-26T09:49:55;2.70;;;1.20;;
8993;SDS011;4532;50.886;4.700;2022-10-26T09:52:26;5.60;;;1.43;;
8993;SDS011;4532;50.886;4.700;2022-10-26T09:54:55;10.07;;;1.47;;
8993;SDS011;4532;50.886;4.700;2022-10-26T09:57:22;5.00;;;1.00;;
8993;SDS011;4532;50.886;4.700;2022-10-26T09:59:50;3.33;;;1.20;;
8993;SDS011;4532;50.886;4.700;2022-10-26T10:02:37;7.93;;;1.85;;
8993;SDS011;4532;50.886;4.700;2022-10-26T10:08:23;5.53;;;1.30;;
8993;SDS011;4532;50.886;4.700;2022-10-26T10:13:28;3.42;;;1.38;;
8993;SDS011;4532;50.886;4.700;2022-10-26T10:16:05;3.20;;;1.30;;
8993;SDS011;4532;50.886;4.700;2022-10-26T10:18:32;3.00;;;1.40;;
8993;SDS011;4532;50.886;4.700;2022-10-26T10:21:01;4.20;;;1.17;;
8993;SDS011;4532;50.886;4.700;2022-10-26T10:23:35;7.72;;;1.58;;
8993;SDS011;4532;50.886;4.700;2022-10-26T10:26:17;5.40;;;1.70;;
8993;SDS011;4532;50.886;4.700;2022-10-26T10:28:55;8.15;;;1.13;;
8993;SDS011;4532;50.886;4.700;2022-10-26T10:31:27;3.53;;;1.38;;
8993;SDS011;4532;50.886;4.700;2022-10-26T10:33:59;4.28;;;1.52;;
8993;SDS011;4532;50.886;4.700;2022-10-26T10:36:40;3.33;;;1.13;;
8993;SDS011;4532;50.886;4.700;2022-10-26T10:39:10;4.28;;;1.40;;
8993;SDS011;4532;50.886;4.700;2022-10-26T10:42:17;3.88;;;1.30;;
8993;SDS011;4532;50.886;4.700;2022-10-26T10:44:50;5.13;;;1.48;;
8993;SDS011;4532;50.886;4.700;2022-10-26T10:47:23;2.45;;;1.10;;
8993;SDS011;4532;50.886;4.700;2022-10-26T10:50:03;6.88;;;1.60;;
8993;SDS011;4532;50.886;4.700;2022-10-26T10:52:45;3.85;;;1.38;;
8993;SDS011;4532;50.886;4.700;2022-10-26T11:00:26;4.13;;;1.42;;
8993;SDS011;4532;50.886;4.700;2022-10-26T11:08:26;4.23;;;1.33;;
8993;SDS011;4532;50.886;4.700;2022-10-26T11:11:20;4.43;;;1.50;;
8993;SDS011;4532;50.886;4.700;2022-10-26T11:16:29;4.45;;;1.30;;
8993;SDS011;4532;50.886;4.700;2022-10-26T11:21:58;4.68;;;1.05;;
8993;SDS011;4532;50.886;4.700;2022-10-26T11:24:33;1.60;;;1.10;;
8993;SDS011;4532;50.886;4.700;2022-10-26T11:27:18;1.92;;;1.15;;
8993;SDS011;4532;50.886;4.700;2022-10-26T11:29:53;2.65;;;1.20;;
8993;SDS011;4532;50.886;4.700;2022-10-26T11:35:12;8.13;;;1.40;;
8993;SDS011;4532;50.886;4.700;2022-10-26T11:37:47;2.88;;;1.00;;
8993;SDS011;4532;50.886;4.700;2022-10-26T11:51:37;3.38;;;1.45;;
8993;SDS011;4532;50.886;4.700;2022-10-26T11:54:27;3.30;;;0.88;;
8993;SDS011;4532;50.886;4.700;2022-10-26T11:57:02;5.10;;;1.13;;
8993;SDS011;4532;50.886;4.700;2022-10-26T11:59:35;4.88;;;1.35;;
8993;SDS011;4532;50.886;4.700;2022-10-26T12:02:13;3.17;;;1.40;;
8993;SDS011;4532;50.886;4.700;2022-10-26T12:04:44;4.43;;;1.50;;
8993;SDS011;4532;50.886;4.700;2022-10-26T12:07:25;4.28;;;1.67;;
8993;SDS011;4532;50.886;4.700;2022-10-26T12:09:59;4.03;;;1.17;;
8993;SDS011;4532;50.886;4.700;2022-10-26T12:12:45;5.03;;;1.05;;
8993;SDS011;4532;50.886;4.700;2022-10-26T12:15:25;4.30;;;1.25;;
8993;SDS011;4532;50.886;4.700;2022-10-26T12:18:26;4.30;;;1.85;;
8993;SDS011;4532;50.886;4.700;2022-10-26T12:21:28;5.20;;;1.40;;
8993;SDS011;4532;50.886;4.700;2022-10-26T12:23:58;4.63;;;1.15;;
8993;SDS011;4532;50.886;4.700;2022-10-26T12:34:09;2.33;;;1.00;;
8993;SDS011;4532;50.886;4.700;2022-10-26T12:39:35;3.53;;;1.00;;
8993;SDS011;4532;50.886;4.700;2022-10-26T12:44:35;4.93;;;1.13;;
8993;SDS011;4532;50.886;4.700;2022-10-26T12:47:07;5.32;;;0.93;;
8993;SDS011;4532;50.886;4.700;2022-10-26T12:52:41;3.53;;;0.95;;
8993;SDS011;4532;50.886;4.700;2022-10-26T13:00:43;6.45;;;1.58;;
8993;SDS011;4532;50.886;4.700;2022-10-26T13:03:34;7.57;;;1.27;;
8993;SDS011;4532;50.886;4.700;2022-10-26T13:08:49;2.90;;;1.02;;
8993;SDS011;4532;50.886;4.700;2022-10-26T13:11:31;3.65;;;1.17;;
8993;SDS011;4532;50.886;4.700;2022-10-26T13:14:20;3.28;;;1.75;;
8993;SDS011;4532;50.886;4.700;2022-10-26T13:16:51;2.55;;;1.20;;
8993;SDS011;4532;50.886;4.700;2022-10-26T13:19:25;2.45;;;1.10;;
8993;SDS011;4532;50.886;4.700;2022-10-26T13:22:00;2.67;;;1.00;;
8993;SDS011;4532;50.886;4.700;2022-10-26T13:24:29;3.08;;;0.98;;
8993;SDS011;4532;50.886;4.700;2022-10-26T13:32:32;3.38;;;1.00;;
8993;SDS011;4532;50.886;4.700;2022-10-26T13:35:10;4.97;;;0.88;;
8993;SDS011;4532;50.886;4.700;2022-10-26T13:37:43;3.72;;;1.73;;
8993;SDS011;4532;50.886;4.700;2022-10-26T13:40:18;6.13;;;1.13;;
8993;SDS011;4532;50.886;4.700;2022-10-26T13:42:52;2.60;;;0.98;;
8993;SDS011;4532;50.886;4.700;2022-10-26T13:45:39;4.63;;;1.52;;
8993;SDS011;4532;50.886;4.700;2022-10-26T13:48:28;3.92;;;1.00;;
8993;SDS011;4532;50.886;4.700;2022-10-26T13:53:49;5.63;;;1.88;;
8993;SDS011;4532;50.886;4.700;2022-10-26T13:56:39;1.95;;;0.95;;
8993;SDS011;4532;50.886;4.700;2022-10-26T13:59:14;6.50;;;1.42;;
8993;SDS011;4532;50.886;4.700;2022-10-26T14:01:44;4.97;;;1.52;;
8993;SDS011;4532;50.886;4.700;2022-10-26T14:04:14;1.35;;;0.90;;
8993;SDS011;4532;50.886;4.700;2022-10-26T14:06:49;3.88;;;1.52;;
8993;SDS011;4532;50.886;4.700;2022-10-26T14:09:18;2.50;;;0.95;;
8993;SDS011;4532;50.886;4.700;2022-10-26T14:11:48;3.13;;;1.08;;
8993;SDS011;4532;50.886;4.700;2022-10-26T14:14:22;4.65;;;1.10;;
8993;SDS011;4532;50.886;4.700;2022-10-26T14:16:53;2.70;;;1.00;;
8993;SDS011;4532;50.886;4.700;2022-10-26T14:19:26;2.85;;;1.00;;
8993;SDS011;4532;50.886;4.700;2022-10-26T14:22:17;1.90;;;0.98;;
8993;SDS011;4532;50.886;4.700;2022-10-26T14:24:50;2.80;;;1.02;;
8993;SDS011;4532;50.886;4.700;2022-10-26T14:27:27;2.28;;;1.30;;
8993;SDS011;4532;50.886;4.700;2022-10-26T14:30:00;6.38;;;1.10;;
8993;SDS011;4532;50.886;4.700;2022-10-26T14:32:49;6.82;;;0.95;;
8993;SDS011;4532;50.886;4.700;2022-10-26T14:35:18;2.22;;;1.17;;
8993;SDS011;4532;50.886;4.700;2022-10-26T14:37:50;2.83;;;0.88;;
8993;SDS011;4532;50.886;4.700;2022-10-26T14:40:24;5.20;;;1.15;;
8993;SDS011;4532;50.886;4.700;2022-10-26T14:42:55;3.67;;;1.27;;
8993;SDS011;4532;50.886;4.700;2022-10-26T14:45:28;5.00;;;1.15;;
8993;SDS011;4532;50.886;4.700;2022-10-26T14:48:28;4.45;;;1.50;;
8993;SDS011;4532;50.886;4.700;2022-10-26T14:51:15;3.03;;;1.10;;
8993;SDS011;4532;50.886;4.700;2022-10-26T14:53:48;8.52;;;1.88;;
8993;SDS011;4532;50.886;4.700;2022-10-26T14:56:21;7.60;;;1.60;;
8993;SDS011;4532;50.886;4.700;2022-10-26T14:58:55;7.18;;;1.50;;
8993;SDS011;4532;50.886;4.700;2022-10-26T15:01:25;2.78;;;0.98;;
8993;SDS011;4532;50.886;4.700;2022-10-26T15:03:58;4.20;;;1.35;;
8993;SDS011;4532;50.886;4.700;2022-10-26T15:08:57;3.45;;;1.55;;
8993;SDS011;4532;50.886;4.700;2022-10-26T15:11:25;3.20;;;1.20;;
8993;SDS011;4532;50.886;4.700;2022-10-26T15:13:54;5.32;;;1.02;;
8993;SDS011;4532;50.886;4.700;2022-10-26T15:16:26;4.80;;;1.20;;
8993;SDS011;4532;50.886;4.700;2022-10-26T15:18:57;5.10;;;1.35;;
8993;SDS011;4532;50.886;4.700;2022-10-26T15:21:33;3.58;;;1.17;;
8993;SDS011;4532;50.886;4.700;2022-10-26T15:24:03;4.57;;;1.15;;
8993;SDS011;4532;50.886;4.700;2022-10-26T15:26:50;3.65;;;1.05;;
8993;SDS011;4532;50.886;4.700;2022-10-26T15:32:03;4.70;;;1.23;;
8993;SDS011;4532;50.886;4.700;2022-10-26T15:34:38;5.05;;;1.02;;
8993;SDS011;4532;50.886;4.700;2022-10-26T15:37:08;3.53;;;0.80;;
8993;SDS011;4532;50.886;4.700;2022-10-26T15:39:35;2.08;;;0.95;;
8993;SDS011;4532;50.886;4.700;2022-10-26T15:42:04;3.63;;;1.10;;
8993;SDS011;4532;50.886;4.700;2022-10-26T15:44:41;6.75;;;1.23;;
8993;SDS011;4532;50.886;4.700;2022-10-26T15:49:43;4.90;;;1.23;;
8993;SDS011;4532;50.886;4.700;2022-10-26T15:52:11;2.25;;;1.10;;
8993;SDS011;4532;50.886;4.700;2022-10-26T15:54:38;5.28;;;1.02;;
8993;SDS011;4532;50.886;4.700;2022-10-26T15:57:08;5.97;;;1.40;;
8993;SDS011;4532;50.886;4.700;2022-10-26T15:59:44;5.88;;;1.55;;
8993;SDS011;4532;50.886;4.700;2022-10-26T16:02:14;5.80;;;1.27;;
8993;SDS011;4532;50.886;4.700;2022-10-26T16:04:43;3.60;;;0.88;;
8993;SDS011;4532;50.886;4.700;2022-10-26T16:07:13;3.42;;;1.15;;
8993;SDS011;4532;50.886;4.700;2022-10-26T16:09:41;3.03;;;0.93;;
8993;SDS011;4532;50.886;4.700;2022-10-26T16:12:10;4.13;;;0.93;;
8993;SDS011;4532;50.886;4.700;2022-10-26T16:14:38;5.38;;;1.20;;
8993;SDS011;4532;50.886;4.700;2022-10-26T16:17:26;3.25;;;1.05;;
8993;SDS011;4532;50.886;4.700;2022-10-26T16:19:53;2.65;;;1.00;;
8993;SDS011;4532;50.886;4.700;2022-10-26T16:22:20;4.00;;;0.95;;
8993;SDS011;4532;50.886;4.700;2022-10-26T16:24:47;3.35;;;1.20;;
8993;SDS011;4532;50.886;4.700;2022-10-26T16:27:17;4.47;;;1.30;;
8993;SDS011;4532;50.886;4.700;2022-10-26T16:29:44;4.43;;;1.10;;
8993;SDS011;4532;50.886;4.700;2022-10-26T16:32:16;3.40;;;1.10;;
8993;SDS011;4532;50.886;4.700;2022-10-26T16:34:43;3.83;;;1.27;;
8993;SDS011;4532;50.886;4.700;2022-10-26T16:37:10;5.43;;;1.50;;
8993;SDS011;4532;50.886;4.700;2022-10-26T16:39:39;4.82;;;1.70;;
8993;SDS011;4532;50.886;4.700;2022-10-26T16:42:07;3.75;;;1.75;;
8993;SDS011;4532;50.886;4.700;2022-10-26T16:44:34;7.05;;;1.92;;
8993;SDS011;4532;50.886;4.700;2022-10-26T16:47:04;4.32;;;1.67;;
8993;SDS011;4532;50.886;4.700;2022-10-26T16:49:31;6.90;;;1.85;;
8993;SDS011;4532;50.886;4.700;2022-10-26T16:52:00;8.00;;;2.47;;
8993;SDS011;4532;50.886;4.700;2022-10-26T16:54:29;4.72;;;2.38;;
8993;SDS011;4532;50.886;4.700;2022-10-26T16:56:56;8.77;;;2.58;;
8993;SDS011;4532;50.886;4.700;2022-10-26T16:59:24;11.70;;;2.75;;
8993;SDS011;4532;50.886;4.700;2022-10-26T17:01:51;10.82;;;2.50;;
8993;SDS011;4532;50.886;4.700;2022-10-26T17:04:18;5.95;;;2.17;;
8993;SDS011;4532;50.886;4.700;2022-10-26T17:06:46;4.80;;;2.22;;
8993;SDS011;4532;50.886;4.700;2022-10-26T17:09:13;7.93;;;2.20;;
8993;SDS011;4532;50.886;4.700;2022-10-26T17:11:40;5.22;;;2.22;;
8993;SDS011;4532;50.886;4.700;2022-10-26T17:14:08;4.28;;;2.10;;
8993;SDS011;4532;50.886;4.700;2022-10-26T17:16:35;6.25;;;2.40;;
8993;SDS011;4532;50.886;4.700;2022-10-26T17:19:02;6.05;;;2.10;;
8993;SDS011;4532;50.886;4.700;2022-10-26T17:21:32;8.98;;;2.60;;
8993;SDS011;4532;50.886;4.700;2022-10-26T17:24:01;7.00;;;2.53;;
8993;SDS011;4532;50.886;4.700;2022-10-26T17:26:28;5.70;;;2.80;;
8993;SDS011;4532;50.886;4.700;2022-10-26T17:28:56;7.50;;;2.40;;
8993;SDS011;4532;50.886;4.700;2022-10-26T17:31:24;7.95;;;2.90;;
8993;SDS011;4532;50.886;4.700;2022-10-26T17:33:54;8.18;;;2.33;;
8993;SDS011;4532;50.886;4.700;2022-10-26T17:36:22;7.13;;;2.45;;
8993;SDS011;4532;50.886;4.700;2022-10-26T17:38:51;5.18;;;2.33;;
8993;SDS011;4532;50.886;4.700;2022-10-26T17:41:23;7.38;;;2.20;;
8993;SDS011;4532;50.886;4.700;2022-10-26T17:43:50;8.25;;;2.78;;
8993;SDS011;4532;50.886;4.700;2022-10-26T17:46:20;10.23;;;3.40;;
8993;SDS011;4532;50.886;4.700;2022-10-26T17:48:56;6.55;;;2.92;;
8993;SDS011;4532;50.886;4.700;2022-10-26T17:51:24;7.85;;;2.85;;
8993;SDS011;4532;50.886;4.700;2022-10-26T17:53:53;9.20;;;3.55;;
8993;SDS011;4532;50.886;4.700;2022-10-26T17:56:21;10.18;;;4.47;;
8993;SDS011;4532;50.886;4.700;2022-10-26T17:58:51;6.55;;;3.40;;
8993;SDS011;4532;50.886;4.700;2022-10-26T18:01:26;8.32;;;3.25;;
8993;SDS011;4532;50.886;4.700;2022-10-26T18:03:54;8.63;;;2.97;;
8993;SDS011;4532;50.886;4.700;2022-10-26T18:06:21;5.38;;;2.97;;
8993;SDS011;4532;50.886;4.700;2022-10-26T18:08:49;4.97;;;2.95;;
8993;SDS011;4532;50.886;4.700;2022-10-26T18:11:17;6.10;;;2.28;;